Terminal Aerodrome Forecast
Issued by NWS Pocatello, ID

Home | Current Version | Previous Version | Text Only | Print | Product List | Glossary On
Versions: 1 2 3 4 5 6 7 8 9 10 11 12 13 14 15 16 17 18 19 20 21 22 23 24 25 26 27 28 29 30 31 32
819
FTUS45 KPIH 080710 AAB
TAFIDA
TAF AMD
KIDA 080710Z 0807/0906 36005KT 1/4SM FZFG OVC002
      TEMPO 0807/0809 3SM BR OVC003
     FM081700 36005KT 1/2SM FZFG OVC006
     FM082100 36005KT 6SM BR OVC010
     FM090400 01005KT 1SM BR OVC003=

USA.gov is the U.S. government's official web portal to all federal, state and local government web resources and services.